Time;durP1;ratioP1;P1;durP2;ratioP2;P2;SDS_P1;SDS_P2;PMS_P1;PMS_P2;Temp;Humidity;BMP_temperature;BMP_pressure;BME280_temperature;BME280_humidity;BME280_pressure;Samples;Min_cycle;Max_cycle;Signal;HPM_P1;HPM_P2
2021/11/16 00:00:41;;;;;;;30.88;19.60;;;;;;;16.35;72.65;101489.78;5089742;28;20036;-66
2021/11/16 00:03:10;;;;;;;28.45;17.02;;;;;;;16.32;72.80;101486.25;5089122;28;20462;-66
2021/11/16 00:05:38;;;;;;;28.23;17.92;;;;;;;16.31;72.86;101482.69;5089042;28;20081;-65
2021/11/16 00:08:07;;;;;;;31.55;18.42;;;;;;;16.33;73.01;101483.59;5089169;28;20044;-65
2021/11/16 00:10:36;;;;;;;34.08;21.30;;;;;;;16.33;73.20;101482.69;5087917;28;20119;-66
2021/11/16 00:13:04;;;;;;;28.70;17.10;;;;;;;16.30;73.33;101483.56;5088217;28;20040;-65
2021/11/16 00:15:31;;;;;;;29.42;18.73;;;;;;;16.30;73.55;101482.66;5089412;28;20454;-65
2021/11/16 00:18:00;;;;;;;30.88;18.67;;;;;;;16.33;73.74;101482.69;5089305;28;20480;-65
2021/11/16 00:20:28;;;;;;;30.02;17.60;;;;;;;16.37;73.90;101486.25;5069077;28;20060;-66
2021/11/16 00:22:56;;;;;;;30.02;18.17;;;;;;;16.37;73.82;101473.81;5072397;28;20032;-65
2021/11/16 00:25:33;;;;;;;30.42;18.27;;;;;;;16.34;73.86;101480.00;5088220;28;20040;-66
2021/11/16 00:28:01;;;;;;;27.30;17.55;;;;;;;16.30;73.78;101475.56;5088984;28;20036;-65
2021/11/16 00:30:28;;;;;;;27.65;16.50;;;;;;;16.27;73.82;101480.91;5085798;28;20404;-66
2021/11/16 00:32:56;;;;;;;26.60;17.40;;;;;;;16.25;73.79;101473.78;5087732;28;20060;-66
2021/11/16 00:35:26;;;;;;;30.35;18.58;;;;;;;16.24;73.74;101480.88;5088481;28;20565;-66
2021/11/16 00:37:54;;;;;;;29.98;18.65;;;;;;;16.23;73.81;101484.41;5089154;28;20032;-66
2021/11/16 00:40:22;;;;;;;32.83;18.58;;;;;;;16.22;73.94;101481.75;5087035;28;20098;-66
2021/11/16 00:42:51;;;;;;;28.55;16.77;;;;;;;16.19;74.69;101485.31;5088906;28;20048;-65
2021/11/16 00:45:19;;;;;;;31.65;17.75;;;;;;;16.18;74.78;101471.97;5088890;28;20109;-65
2021/11/16 00:47:47;;;;;;;29.00;19.08;;;;;;;16.17;74.66;101470.19;5088253;28;20043;-65
2021/11/16 00:50:16;;;;;;;28.10;17.83;;;;;;;16.15;74.70;101467.50;5087048;28;20445;-65
2021/11/16 00:52:46;;;;;;;27.80;18.35;;;;;;;16.16;74.65;101461.31;5088674;28;20400;-66
2021/11/16 00:55:14;;;;;;;33.15;18.63;;;;;;;16.17;74.58;101451.53;5088369;28;20094;-65
2021/11/16 00:57:42;;;;;;;26.70;17.95;;;;;;;16.17;74.59;101451.53;5069034;28;20056;-65
2021/11/16 01:00:12;;;;;;;28.67;18.20;;;;;;;16.14;74.61;101452.44;5068841;28;20048;-65
2021/11/16 01:02:40;;;;;;;28.90;18.38;;;;;;;16.10;74.77;101452.41;5080651;28;20044;-65
2021/11/16 01:05:08;;;;;;;35.78;21.33;;;;;;;16.11;74.97;101451.50;5089027;28;20395;-65
2021/11/16 01:07:36;;;;;;;33.90;19.60;;;;;;;16.16;74.93;101460.41;5087386;28;20135;-66
2021/11/16 01:10:06;;;;;;;33.55;21.80;;;;;;;16.23;74.95;101451.56;5087130;28;20040;-65
2021/11/16 01:12:34;;;;;;;30.77;18.65;;;;;;;16.25;74.77;101449.81;5088185;28;20098;-65
2021/11/16 01:15:03;;;;;;;30.92;20.13;;;;;;;16.29;74.84;101446.25;5086706;28;20068;-65
2021/11/16 01:17:30;;;;;;;28.27;18.65;;;;;;;16.24;75.05;101442.69;5088868;28;20032;-66
2021/11/16 01:19:58;;;;;;;25.65;16.95;;;;;;;16.12;75.27;101440.88;5087602;28;20032;-66
2021/11/16 01:22:26;;;;;;;26.42;17.08;;;;;;;16.04;75.78;101442.59;5086758;28;20493;-66
2021/11/16 01:24:54;;;;;;;24.98;15.23;;;;;;;16.06;75.82;101443.53;5090613;28;20040;-65
2021/11/16 01:27:25;;;;;;;29.20;18.50;;;;;;;16.09;76.01;101443.50;5092243;28;20098;-66
2021/11/16 01:29:55;;;;;;;25.60;16.77;;;;;;;16.14;76.07;101435.56;5092040;28;20041;-66
2021/11/16 01:32:32;;;;;;;27.13;18.25;;;;;;;16.18;76.21;101440.00;5090640;28;20032;-66
2021/11/16 01:35:01;;;;;;;28.08;17.13;;;;;;;16.26;76.17;101438.25;5090738;28;20043;-66
2021/11/16 01:37:29;;;;;;;30.52;18.27;;;;;;;16.32;76.05;101440.94;5090309;28;20036;-65
2021/11/16 01:39:57;;;;;;;27.77;16.83;;;;;;;16.37;76.27;101439.16;5091909;28;20051;-67
2021/11/16 01:42:26;;;;;;;29.77;18.75;;;;;;;16.44;76.12;101437.41;5089650;28;20040;-66
2021/11/16 01:44:54;;;;;;;28.80;18.00;;;;;;;16.49;76.00;101438.31;5075646;28;20119;-65
2021/11/16 01:47:21;;;;;;;31.02;17.45;;;;;;;16.51;76.10;101431.22;5090509;28;20040;-66
2021/11/16 01:49:49;;;;;;;27.02;16.95;;;;;;;16.55;75.84;101427.66;5091767;28;20044;-65
2021/11/16 01:52:16;;;;;;;26.73;17.17;;;;;;;16.56;75.88;101430.34;5090969;28;20119;-66
2021/11/16 01:54:44;;;;;;;31.15;18.92;;;;;;;16.57;75.81;101428.56;5091233;28;20047;-65
2021/11/16 01:57:12;;;;;;;32.42;18.02;;;;;;;16.61;75.80;101433.03;5090289;28;20040;-66
2021/11/16 01:59:41;;;;;;;30.52;17.15;;;;;;;16.64;75.75;101428.59;5091281;28;20058;-65
2021/11/16 02:02:10;;;;;;;36.95;19.05;;;;;;;16.67;75.59;101417.94;5091143;28;20151;-66
2021/11/16 02:04:38;;;;;;;26.05;16.10;;;;;;;16.67;75.66;101419.75;5091203;28;20040;-66
2021/11/16 02:07:07;;;;;;;25.70;15.95;;;;;;;16.64;75.78;101419.72;5091412;28;20035;-65
2021/11/16 02:09:36;;;;;;;27.30;18.25;;;;;;;16.60;75.82;101410.84;5090983;28;20043;-66
2021/11/16 02:12:04;;;;;;;30.20;18.38;;;;;;;16.61;75.70;101412.59;5088900;28;20046;-66
2021/11/16 02:14:32;;;;;;;31.85;19.52;;;;;;;16.69;75.71;101410.84;5091293;28;20458;-65
2021/11/16 02:17:01;;;;;;;29.05;16.50;;;;;;;16.65;75.36;101406.41;5090643;28;20411;-66
2021/11/16 02:19:29;;;;;;;30.25;19.27;;;;;;;16.62;75.29;101406.38;5077823;28;20043;-65
2021/11/16 02:21:58;;;;;;;34.65;18.95;;;;;;;16.62;75.34;101409.03;5090354;28;20051;-65
2021/11/16 02:24:26;;;;;;;35.55;20.38;;;;;;;16.61;75.02;101406.38;5089541;28;20063;-66
2021/11/16 02:26:53;;;;;;;30.60;18.70;;;;;;;16.56;75.10;101409.00;5088397;28;20036;-66
2021/11/16 02:29:21;;;;;;;30.15;17.60;;;;;;;16.50;75.29;101403.66;5090846;28;20032;-66
2021/11/16 02:31:53;;;;;;;32.03;17.92;;;;;;;16.59;75.18;101403.69;5090769;28;20140;-65
2021/11/16 02:34:22;;;;;;;28.70;17.60;;;;;;;16.53;75.22;101408.13;5088930;28;20115;-66
2021/11/16 02:36:50;;;;;;;28.92;17.80;;;;;;;16.55;75.14;101388.56;5090186;28;20048;-66
2021/11/16 02:39:20;;;;;;;28.98;17.98;;;;;;;16.52;74.97;101391.25;5089411;28;20044;-66
2021/11/16 02:41:51;;;;;;;27.48;18.10;;;;;;;16.44;75.26;101392.09;5090386;28;20063;-65
2021/11/16 02:44:23;;;;;;;31.30;18.35;;;;;;;16.48;75.14;101393.88;5087480;28;20044;-65
2021/11/16 02:46:52;;;;;;;30.08;18.13;;;;;;;16.43;75.21;101391.22;5089157;28;20115;-66
2021/11/16 02:49:20;;;;;;;34.22;18.38;;;;;;;16.48;75.13;101396.53;5091346;28;20120;-65
2021/11/16 02:51:48;;;;;;;35.33;18.88;;;;;;;16.43;75.22;101387.66;5108776;27;20032;-65
2021/11/16 02:54:20;;;;;;;30.58;19.67;;;;;;;16.48;74.93;101394.75;5086923;28;20044;-65
2021/11/16 02:56:49;;;;;;;28.85;18.70;;;;;;;16.46;74.85;101391.22;5090284;28;20097;-66
2021/11/16 02:59:17;;;;;;;36.10;19.60;;;;;;;16.44;74.87;101401.00;5089108;28;20396;-66
2021/11/16 03:01:45;;;;;;;28.08;18.90;;;;;;;16.43;75.03;101393.88;5081766;28;20687;-66
2021/11/16 03:04:21;;;;;;;29.80;18.52;;;;;;;16.47;75.01;101398.34;5088467;28;20036;-65
2021/11/16 03:06:48;;;;;;;33.88;20.00;;;;;;;16.46;75.05;101393.91;5089782;28;20113;-65
2021/11/16 03:09:16;;;;;;;29.38;19.25;;;;;;;16.49;75.13;101391.22;5088060;28;20674;-66
2021/11/16 03:11:45;;;;;;;31.67;18.63;;;;;;;16.52;75.02;101390.34;5089578;28;20044;-67
2021/11/16 03:14:17;;;;;;;31.83;18.92;;;;;;;16.55;75.04;101385.00;5089666;28;20067;-65
2021/11/16 03:16:44;;;;;;;29.00;17.83;;;;;;;16.58;75.06;101385.91;5089701;28;20056;-65
2021/11/16 03:19:12;;;;;;;31.27;19.02;;;;;;;16.56;74.94;101397.44;5089292;28;20527;-65
2021/11/16 03:21:43;;;;;;;26.52;18.40;;;;;;;16.58;74.84;101385.03;5074786;28;20039;-66
2021/11/16 03:24:12;;;;;;;30.48;18.13;;;;;;;16.51;75.04;101386.78;5089916;28;20466;-66
2021/11/16 03:26:39;;;;;;;31.20;18.42;;;;;;;16.49;75.02;101385.00;5089417;28;20464;-65
2021/11/16 03:29:11;;;;;;;26.95;17.60;;;;;;;16.43;75.06;101385.00;5087817;28;20050;-66
2021/11/16 03:31:47;;;;;;;30.90;17.42;;;;;;;16.37;75.16;101385.88;5090187;28;20531;-66
2021/11/16 03:34:15;;;;;;;29.73;17.92;;;;;;;16.31;75.40;101381.44;5089736;28;20047;-65
2021/11/16 03:36:43;;;;;;;28.73;17.48;;;;;;;16.29;75.53;101383.19;5089024;28;20059;-66
2021/11/16 03:39:11;;;;;;;26.20;17.17;;;;;;;16.28;75.56;101381.41;5087797;28;20036;-65
2021/11/16 03:41:40;;;;;;;29.13;17.42;;;;;;;16.27;75.49;101379.66;5087781;28;20514;-67
2021/11/16 03:44:10;;;;;;;27.75;17.92;;;;;;;16.31;75.41;101381.44;5089038;28;20059;-66
2021/11/16 03:46:37;;;;;;;29.23;17.77;;;;;;;16.30;75.21;101378.75;5089786;28;20052;-65
2021/11/16 03:49:05;;;;;;;26.65;16.63;;;;;;;16.24;75.35;101378.75;5087744;28;20040;-66
2021/11/16 03:51:33;;;;;;;27.80;17.85;;;;;;;16.24;75.70;101381.41;5088498;28;20044;-66
2021/11/16 03:54:00;;;;;;;28.23;17.33;;;;;;;16.20;75.75;101383.19;5089209;28;20064;-66
2021/11/16 03:56:28;;;;;;;30.77;19.42;;;;;;;16.19;75.74;101380.50;5088640;28;20032;-66
2021/11/16 03:58:56;;;;;;;28.83;18.70;;;;;;;16.25;75.59;101383.19;5088050;28;20487;-66
2021/11/16 04:01:25;;;;;;;30.45;19.23;;;;;;;16.30;75.32;101378.75;5088377;28;20060;-66
2021/11/16 04:03:53;;;;;;;30.60;18.60;;;;;;;16.23;75.63;101383.19;5087589;28;20495;-65
2021/11/16 04:06:22;;;;;;;30.08;20.13;;;;;;;16.23;75.54;101384.94;5087848;28;20028;-67
2021/11/16 04:08:50;;;;;;;33.03;21.63;;;;;;;16.23;75.67;101384.94;5089442;28;20059;-66
2021/11/16 04:11:18;;;;;;;25.95;17.52;;;;;;;16.24;75.60;101384.97;5088328;28;20097;-65
2021/11/16 04:13:46;;;;;;;29.77;18.73;;;;;;;16.22;75.44;101378.72;5089054;28;20040;-65
2021/11/16 04:16:14;;;;;;;30.00;17.40;;;;;;;16.13;75.94;101381.38;5086615;28;20044;-65
2021/11/16 04:18:44;;;;;;;29.90;19.42;;;;;;;16.10;76.34;101384.03;5087199;28;20355;-66
2021/11/16 04:21:11;;;;;;;28.98;18.50;;;;;;;16.12;76.11;101389.38;5088526;28;20047;-65
2021/11/16 04:23:39;;;;;;;32.85;20.70;;;;;;;16.11;76.05;101388.47;5087712;28;20078;-65
2021/11/16 04:26:08;;;;;;;31.13;19.15;;;;;;;16.16;76.17;101386.72;5087469;28;21441;-66
2021/11/16 04:28:36;;;;;;;29.60;18.83;;;;;;;16.17;75.94;101387.59;5087559;28;20050;-66
2021/11/16 04:31:04;;;;;;;30.92;18.55;;;;;;;16.17;75.85;101399.16;5084161;28;20040;-66
2021/11/16 04:33:31;;;;;;;32.30;18.88;;;;;;;16.16;75.89;101394.69;5088669;28;20040;-65
2021/11/16 04:36:02;;;;;;;23.25;17.25;;;;;;;16.19;75.91;101401.81;5088637;28;20403;-66
2021/11/16 04:38:30;;;;;;;26.23;17.55;;;;;;;16.17;75.74;101392.94;5087485;28;20040;-66
2021/11/16 04:41:01;;;;;;;30.38;17.58;;;;;;;16.14;75.53;101395.59;5087864;28;20046;-66
2021/11/16 04:43:30;;;;;;;27.77;18.65;;;;;;;16.10;75.52;101401.78;5087382;28;20369;-66
2021/11/16 04:46:04;;;;;;;33.78;21.17;;;;;;;16.08;75.59;101399.09;5088358;28;20399;-66
2021/11/16 04:48:47;;;;;;;33.78;21.55;;;;;;;16.06;75.68;101394.69;5087100;28;20618;-65
2021/11/16 04:59:49;;;;;;;30.45;21.17;;;;;;;16.09;76.24;101402.66;5088469;28;20551;-65
2021/11/16 05:02:34;;;;;;;31.85;19.83;;;;;;;16.09;76.21;101400.00;5091564;28;20122;-66
2021/11/16 05:05:02;;;;;;;32.90;25.35;;;;;;;16.04;76.11;101400.00;5092233;28;20519;-66
2021/11/16 05:07:33;;;;;;;40.08;30.05;;;;;;;16.03;76.06;101407.97;5089787;28;20032;-66
2021/11/16 05:10:02;;;;;;;36.13;26.08;;;;;;;16.03;76.04;101399.97;5090771;28;20046;-66
2021/11/16 05:12:31;;;;;;;34.35;23.88;;;;;;;16.03;76.04;101395.53;5092041;28;20145;-66
2021/11/16 05:15:01;;;;;;;32.22;19.48;;;;;;;16.05;76.49;101399.13;5090904;28;20063;-65
2021/11/16 05:17:29;;;;;;;34.50;21.95;;;;;;;16.10;76.46;101404.44;5091596;28;20105;-66
2021/11/16 05:19:56;;;;;;;35.65;23.42;;;;;;;16.15;76.30;101394.69;5089312;28;20036;-66
2021/11/16 05:22:24;;;;;;;31.10;19.27;;;;;;;16.12;76.44;101392.03;5090257;28;20545;-65
2021/11/16 05:24:54;;;;;;;34.17;20.65;;;;;;;16.14;76.64;101390.28;5092223;28;20050;-67
2021/11/16 05:27:21;;;;;;;36.97;20.95;;;;;;;16.15;76.73;101386.69;5091985;28;20064;-67
2021/11/16 05:29:49;;;;;;;35.92;22.98;;;;;;;16.18;76.99;101398.28;5092225;28;20036;-65
2021/11/16 05:32:17;;;;;;;34.65;19.33;;;;;;;16.23;76.89;101399.16;5085158;27;20048;-66
2021/11/16 05:34:46;;;;;;;37.58;25.48;;;;;;;16.27;77.01;101400.06;5092798;28;20059;-66
2021/11/16 05:37:14;;;;;;;48.42;31.98;;;;;;;16.28;76.86;101402.72;5081287;28;20051;-65
2021/11/16 05:39:42;;;;;;;45.28;33.17;;;;;;;16.29;76.62;101406.28;5092293;28;20105;-65
2021/11/16 05:42:11;;;;;;;42.65;31.50;;;;;;;16.37;76.59;101412.53;5078579;28;20049;-66
2021/11/16 05:44:39;;;;;;;45.08;30.90;;;;;;;16.40;76.72;101420.53;5091270;28;20127;-66
2021/11/16 05:47:08;;;;;;;27.75;19.85;;;;;;;16.50;76.64;101429.44;5080324;28;20050;-65
2021/11/16 05:49:35;;;;;;;29.75;19.60;;;;;;;16.41;76.84;101430.28;5098477;28;20029;-66
2021/11/16 05:52:05;;;;;;;27.08;17.38;;;;;;;16.53;76.66;101425.00;5095810;28;20052;-65
2021/11/16 05:54:34;;;;;;;26.27;17.17;;;;;;;16.50;76.61;101427.66;5088652;28;20032;-65
2021/11/16 05:57:02;;;;;;;26.63;18.13;;;;;;;16.51;76.55;101432.09;5091138;28;20048;-66
2021/11/16 05:59:34;;;;;;;27.35;18.20;;;;;;;16.53;76.83;101430.34;5084632;28;20036;-65
2021/11/16 06:02:03;;;;;;;27.83;17.42;;;;;;;16.61;77.01;101430.34;5088022;28;20127;-65
2021/11/16 06:04:31;;;;;;;28.15;17.42;;;;;;;16.67;77.15;101427.72;5089611;28;20036;-66
2021/11/16 06:07:00;;;;;;;28.98;17.27;;;;;;;16.74;77.13;101434.81;5091557;28;20361;-65
2021/11/16 06:09:30;;;;;;;26.45;17.55;;;;;;;16.80;77.31;101439.31;5090941;28;20047;-65
2021/11/16 06:11:59;;;;;;;28.50;18.23;;;;;;;16.81;77.25;101433.06;5088100;28;20049;-66
2021/11/16 06:14:27;;;;;;;31.27;18.88;;;;;;;16.81;77.37;101425.06;5090674;28;20035;-65
2021/11/16 06:16:57;;;;;;;28.15;17.70;;;;;;;16.84;77.42;101433.06;5086582;28;20071;-66
2021/11/16 06:19:26;;;;;;;31.00;22.48;;;;;;;16.91;77.56;101426.84;5089580;28;20174;-65
2021/11/16 06:21:54;;;;;;;29.85;19.65;;;;;;;17.02;77.61;101420.63;5090295;28;20040;-67
2021/11/16 06:24:22;;;;;;;31.08;19.60;;;;;;;17.17;77.77;101429.50;5089466;28;20123;-66
2021/11/16 06:26:50;;;;;;;33.35;20.65;;;;;;;17.23;77.80;101434.84;5088787;28;20036;-66
2021/11/16 06:29:18;;;;;;;28.40;20.38;;;;;;;17.27;77.84;101433.94;5090541;28;20032;-65
2021/11/16 06:31:45;;;;;;;27.38;18.05;;;;;;;17.31;77.84;101438.41;5088865;28;20043;-65
2021/11/16 06:34:15;;;;;;;32.15;20.02;;;;;;;17.32;77.92;101441.06;5087016;28;20231;-65
2021/11/16 06:36:44;;;;;;;33.60;20.25;;;;;;;17.32;77.92;101446.41;5063374;28;20562;-65
2021/11/16 06:39:13;;;;;;;32.28;22.42;;;;;;;17.30;77.83;101453.53;5083847;28;20207;-65
2021/11/16 06:41:42;;;;;;;32.15;21.10;;;;;;;17.32;77.57;101451.75;5087529;28;20678;-65
2021/11/16 06:44:11;;;;;;;35.70;21.30;;;;;;;17.37;77.24;101454.41;5088485;28;20044;-65
2021/11/16 06:46:39;;;;;;;31.10;21.98;;;;;;;17.43;77.22;101455.28;5089296;28;20395;-65
2021/11/16 06:49:09;;;;;;;31.38;20.17;;;;;;;17.55;76.57;101457.03;5088470;28;20578;-66
2021/11/16 06:51:41;;;;;;;27.63;17.60;;;;;;;17.82;77.11;101450.78;5089953;28;20089;-66
2021/11/16 06:54:11;;;;;;;27.63;16.05;;;;;;;18.15;77.38;101456.00;5085654;28;20044;-66
2021/11/16 06:56:42;;;;;;;23.77;16.73;;;;;;;18.43;77.01;101451.41;5086936;28;20043;-66
2021/11/16 06:59:10;;;;;;;27.08;17.27;;;;;;;18.71;76.68;101453.03;5086905;28;20551;-65
2021/11/16 07:01:38;;;;;;;26.02;16.83;;;;;;;18.88;76.50;101452.94;5087852;28;20047;-66
2021/11/16 07:04:10;;;;;;;25.05;16.10;;;;;;;19.10;76.22;101461.66;5085557;28;20044;-66
2021/11/16 07:06:40;;;;;;;23.58;15.45;;;;;;;19.33;75.71;101458.81;5090357;28;20100;-66
2021/11/16 07:09:10;;;;;;;23.75;14.93;;;;;;;19.45;75.09;101470.28;5090019;28;20040;-65
2021/11/16 07:11:45;;;;;;;22.38;16.63;;;;;;;19.50;74.13;101475.63;5088799;28;20147;-66
2021/11/16 07:14:15;;;;;;;23.52;16.10;;;;;;;19.59;73.61;101470.19;5088738;28;20539;-66
2021/11/16 07:16:45;;;;;;;21.45;14.77;;;;;;;19.62;72.55;101478.22;5085433;28;20043;-66
2021/11/16 07:19:14;;;;;;;23.30;15.48;;;;;;;19.56;71.76;101478.25;5089584;28;20059;-66
2021/11/16 07:21:56;;;;;;;27.52;17.98;;;;;;;19.49;70.82;101481.91;5088530;28;20127;-65
2021/11/16 07:24:26;;;;;;;25.80;18.15;;;;;;;19.45;70.92;101486.34;5089276;28;20465;-66
2021/11/16 07:26:59;;;;;;;25.00;18.35;;;;;;;19.56;70.54;101488.97;5089160;28;20113;-66
2021/11/16 07:29:39;;;;;;;23.35;15.68;;;;;;;19.85;70.20;101489.56;5089550;28;20043;-66
2021/11/16 07:32:09;;;;;;;23.77;16.50;;;;;;;19.94;69.10;101487.69;5087217;28;20040;-66
2021/11/16 07:34:38;;;;;;;20.48;16.40;;;;;;;19.86;68.01;101496.69;5088019;28;20040;-66
2021/11/16 07:37:10;;;;;;;22.10;14.95;;;;;;;19.94;68.11;101493.94;5086176;27;20031;-66
2021/11/16 07:39:51;;;;;;;19.88;13.85;;;;;;;20.18;67.91;101496.31;5087304;28;20484;-65
2021/11/16 07:42:21;;;;;;;21.35;13.23;;;;;;;20.44;68.02;101485.31;5084825;28;20048;-66
2021/11/16 07:45:04;;;;;;;18.55;13.63;;;;;;;20.67;66.31;101490.38;5087157;28;20040;-66
2021/11/16 07:47:43;;;;;;;21.58;13.82;;;;;;;20.81;65.78;101492.81;5086531;28;20040;-65
2021/11/16 07:50:16;;;;;;;20.95;13.80;;;;;;;20.97;65.59;101492.59;5088566;28;20081;-66
2021/11/16 07:52:47;;;;;;;21.55;13.93;;;;;;;21.11;64.00;101483.41;5088524;28;20510;-66
2021/11/16 07:55:24;;;;;;;17.88;13.77;;;;;;;21.24;63.77;101487.72;5087809;28;20040;-66
2021/11/16 07:57:53;;;;;;;15.95;12.88;;;;;;;21.37;64.37;101490.16;5100516;27;20046;-67
2021/11/16 08:00:26;;;;;;;18.88;12.55;;;;;;;21.58;63.49;101488.91;5108516;27;20035;-66
2021/11/16 08:03:00;;;;;;;17.40;12.70;;;;;;;21.55;62.51;101491.63;5106217;27;20047;-67
2021/11/16 08:05:36;;;;;;;15.35;13.02;;;;;;;21.57;61.85;101491.63;5107290;27;20092;-66
2021/11/16 08:11:16;;;;;;;17.23;12.35;;;;;;;21.92;60.17;101475.72;5105359;27;20735;-66
2021/11/16 08:13:55;;;;;;;18.45;12.80;;;;;;;22.03;59.98;101481.81;5110073;27;20043;-66
2021/11/16 08:16:24;;;;;;;19.40;12.40;;;;;;;22.15;59.59;101481.53;5115530;27;20046;-66
2021/11/16 08:18:57;;;;;;;18.70;11.40;;;;;;;22.25;58.39;101468.81;5093867;27;20055;-67
2021/11/16 08:21:26;;;;;;;16.55;11.57;;;;;;;22.39;58.22;101468.47;5068452;28;20040;-66
2021/11/16 08:23:58;;;;;;;15.55;11.05;;;;;;;22.50;57.77;101469.16;5072522;28;20047;-66
2021/11/16 08:26:31;;;;;;;19.77;11.90;;;;;;;22.41;56.19;101462.16;5087662;28;20481;-66
2021/11/16 08:29:00;;;;;;;21.27;12.90;;;;;;;22.44;56.63;101470.19;5086602;27;20123;-66
2021/11/16 08:31:36;;;;;;;16.25;10.40;;;;;;;22.52;56.25;101462.78;5075948;28;20118;-66
2021/11/16 08:34:24;;;;;;;17.88;11.15;;;;;;;22.44;55.36;101463.91;5086235;28;20462;-66
2021/11/16 08:36:54;;;;;;;16.38;13.15;;;;;;;22.24;55.39;101461.66;5090621;28;20028;-68
2021/11/16 08:39:34;;;;;;;18.48;12.60;;;;;;;21.99;55.29;101461.25;5089124;28;20390;-67
2021/11/16 08:42:02;;;;;;;19.75;12.98;;;;;;;21.78;55.73;101457.16;5089908;28;20531;-66
2021/11/16 08:44:34;;;;;;;20.00;13.27;;;;;;;21.86;56.38;101455.19;5083881;28;20037;-66
2021/11/16 08:47:10;;;;;;;18.88;13.45;;;;;;;22.14;56.37;101458.25;5077789;28;20043;-66
2021/11/16 08:49:43;;;;;;;17.60;12.98;;;;;;;22.28;56.17;101457.97;5096217;28;20059;-66
2021/11/16 08:52:16;;;;;;;19.58;12.82;;;;;;;22.34;56.08;101452.44;5096152;28;20428;-66
2021/11/16 08:54:56;;;;;;;21.83;14.40;;;;;;;22.35;55.54;101453.34;5087476;28;20040;-66
2021/11/16 08:57:25;;;;;;;17.08;11.73;;;;;;;22.19;54.80;101453.66;5088717;28;20040;-66
2021/11/16 08:59:53;;;;;;;16.67;12.43;;;;;;;22.03;54.75;101452.22;5089274;28;20040;-66
2021/11/16 09:02:29;;;;;;;21.90;13.95;;;;;;;21.93;54.94;101450.59;5089646;28;20063;-66
2021/11/16 09:04:57;;;;;;;19.80;13.50;;;;;;;21.80;54.93;101457.13;5085658;28;20074;-66
2021/11/16 09:07:29;;;;;;;21.00;14.05;;;;;;;21.77;55.08;101455.41;5075161;28;20040;-66
2021/11/16 09:10:03;;;;;;;22.63;15.77;;;;;;;21.79;55.26;101460.75;5089468;27;20045;-66
2021/11/16 09:12:44;;;;;;;21.15;14.00;;;;;;;21.82;55.45;101456.19;5089777;28;20053;-66
2021/11/16 09:15:17;;;;;;;19.92;15.48;;;;;;;21.85;55.20;101455.25;5079749;28;20090;-66
2021/11/16 09:17:47;;;;;;;20.48;14.23;;;;;;;21.88;55.19;101460.56;5088956;27;20132;-66
2021/11/16 09:20:26;;;;;;;23.00;14.73;;;;;;;22.01;55.65;101450.47;5121034;27;20131;-67
2021/11/16 09:22:56;;;;;;;18.33;13.75;;;;;;;22.05;55.90;101441.44;5081772;28;20085;-67
2021/11/16 09:25:32;;;;;;;17.48;12.57;;;;;;;22.19;55.86;101425.88;5084861;28;20044;-67
2021/11/16 09:28:09;;;;;;;20.42;13.00;;;;;;;22.37;54.90;101443.44;5087247;28;20036;-67
2021/11/16 09:30:41;;;;;;;18.35;13.20;;;;;;;22.44;54.18;101431.63;5087120;28;20128;-66
2021/11/16 09:33:12;;;;;;;18.88;12.05;;;;;;;22.45;53.44;101434.25;5081877;28;20509;-67
2021/11/16 09:35:49;;;;;;;20.95;13.18;;;;;;;22.72;53.61;101427.34;5083780;28;20148;-66
2021/11/16 09:38:44;;;;;;;16.58;11.68;;;;;;;22.97;53.22;101425.00;5084492;28;20113;-67
2021/11/16 09:41:17;;;;;;;19.73;13.82;;;;;;;23.03;53.10;101427.53;5085702;28;20055;-67
2021/11/16 09:43:46;;;;;;;20.58;14.52;;;;;;;23.09;53.27;101430.06;5079996;28;20054;-67
2021/11/16 09:46:19;;;;;;;20.15;13.65;;;;;;;23.12;52.91;101411.13;5082323;28;20075;-67
2021/11/16 09:48:47;;;;;;;20.98;14.27;;;;;;;23.00;52.59;101420.41;5084159;28;20399;-67
2021/11/16 09:51:17;;;;;;;18.35;13.43;;;;;;;22.94;53.05;101420.56;5077527;28;20036;-67
2021/11/16 09:53:45;;;;;;;18.27;12.60;;;;;;;22.87;52.62;101431.50;5084353;28;20079;-67
2021/11/16 09:56:24;;;;;;;16.98;12.85;;;;;;;22.75;52.48;101413.84;5082578;28;20559;-66
2021/11/16 09:58:53;;;;;;;19.17;13.48;;;;;;;22.73;52.54;101417.50;5058871;28;20052;-68
2021/11/16 10:01:30;;;;;;;21.20;12.52;;;;;;;22.70;52.53;101406.78;5087536;28;20131;-67
2021/11/16 10:04:12;;;;;;;18.02;12.32;;;;;;;22.72;52.33;101397.72;5075197;28;20040;-67
2021/11/16 10:06:40;;;;;;;14.95;11.75;;;;;;;22.79;52.21;101398.50;5077921;28;20033;-66
2021/11/16 10:09:09;;;;;;;19.10;13.65;;;;;;;22.82;51.74;101396.63;5086021;28;20128;-66
2021/11/16 10:11:42;;;;;;;19.88;13.57;;;;;;;22.74;51.86;101387.84;5087569;28;20051;-66
2021/11/16 10:14:17;;;;;;;18.00;14.93;;;;;;;22.57;52.04;101398.13;5081127;28;20112;-66
2021/11/16 10:16:46;;;;;;;18.23;13.82;;;;;;;22.34;52.29;101403.13;5085233;28;20048;-66
2021/11/16 10:19:13;;;;;;;19.23;14.48;;;;;;;22.18;52.95;101411.56;5088224;28;20047;-66
2021/11/16 10:21:42;;;;;;;23.77;16.10;;;;;;;22.16;53.12;101408.00;5098729;27;20514;-66
2021/11/16 10:24:29;;;;;;;24.38;15.85;;;;;;;;;;5078720;28;20426;-66
2021/11/16 10:27:01;;;;;;;23.95;14.98;;;;;;;22.21;53.30;101405.22;5096315;27;20491;-66
2021/11/16 10:29:29;;;;;;;21.98;15.32;;;;;;;22.18;53.67;101405.28;5080454;28;20060;-66
2021/11/16 10:31:56;;;;;;;21.02;15.07;;;;;;;22.18;53.46;101407.97;5086886;27;20044;-66
2021/11/16 10:34:41;;;;;;;23.33;15.27;;;;;;;22.12;54.01;101406.28;5081179;28;20093;-66
2021/11/16 10:37:09;;;;;;;22.70;15.45;;;;;;;22.00;54.50;101406.56;5082562;28;20384;-67
2021/11/16 10:39:37;;;;;;;30.13;16.58;;;;;;;21.94;55.01;101398.59;5085845;28;20123;-67
2021/11/16 10:42:17;;;;;;;23.80;16.15;;;;;;;21.93;55.19;101398.59;5087283;28;20071;-66
2021/11/16 10:44:59;;;;;;;27.27;16.20;;;;;;;21.90;55.43;101406.75;5081002;28;20093;-66
2021/11/16 10:47:35;;;;;;;24.27;16.35;;;;;;;21.81;55.59;101400.63;5097856;28;20487;-67
2021/11/16 10:50:11;;;;;;;24.23;16.50;;;;;;;21.79;56.05;101405.16;5103542;27;20044;-66
2021/11/16 10:52:39;;;;;;;24.98;15.68;;;;;;;21.77;56.13;101398.94;5104556;28;20570;-67
2021/11/16 10:55:08;;;;;;;24.25;16.20;;;;;;;21.74;56.37;101400.78;5086205;28;20036;-66
2021/11/16 10:58:10;;;;;;;28.40;17.58;;;;;;;21.76;56.72;101396.28;5089923;28;20040;-66
2021/11/16 11:00:43;;;;;;;29.73;17.60;;;;;;;21.71;56.80;101395.50;5093343;28;20067;-66
2021/11/16 11:03:31;;;;;;;20.65;16.23;;;;;;;21.70;56.85;101388.34;5089879;28;20059;-66
2021/11/16 11:06:01;;;;;;;23.98;16.75;;;;;;;21.67;56.87;101374.94;5098518;28;20039;-67
2021/11/16 11:08:47;;;;;;;23.15;17.35;;;;;;;21.65;57.19;101383.06;5090582;28;20123;-67
2021/11/16 11:11:21;;;;;;;23.73;16.17;;;;;;;21.63;57.41;101386.69;5088298;28;20487;-66
2021/11/16 11:13:56;;;;;;;25.77;17.90;;;;;;;21.63;57.53;101384.88;5089045;28;20122;-66
2021/11/16 11:16:25;;;;;;;23.40;17.52;;;;;;;21.63;57.69;101386.69;5087056;28;20048;-66
2021/11/16 11:18:53;;;;;;;26.20;17.88;;;;;;;21.66;57.77;101387.50;5086985;28;20106;-66
2021/11/16 11:21:27;;;;;;;31.02;18.13;;;;;;;21.65;57.78;101390.25;5088382;28;20543;-66
2021/11/16 11:23:57;;;;;;;23.38;17.98;;;;;;;21.61;58.09;101392.09;5084983;28;20035;-66
2021/11/16 11:26:33;;;;;;;23.27;16.98;;;;;;;21.64;58.20;101388.47;5084086;28;20392;-66
2021/11/16 11:29:14;;;;;;;25.90;17.92;;;;;;;21.60;58.48;101389.44;5088150;28;20491;-66
2021/11/16 11:31:42;;;;;;;25.52;17.92;;;;;;;21.58;58.88;101384.09;5087143;28;20032;-66
2021/11/16 11:34:11;;;;;;;25.73;16.95;;;;;;;21.61;59.16;101383.13;5089919;28;20044;-66
2021/11/16 11:36:44;;;;;;;26.20;18.88;;;;;;;21.65;59.34;101372.31;5107940;28;20043;-66